createdAt,value
2023-01-27T00:02:15.948Z,13.20
2023-01-27T00:04:44.554Z,12.93
2023-01-27T00:07:13.217Z,14.20
2023-01-27T00:09:42.734Z,14.47
2023-01-27T00:12:43.199Z,13.13
2023-01-27T00:15:14.026Z,11.20
2023-01-27T00:17:43.033Z,13.37
2023-01-27T00:20:12.588Z,11.60
2023-01-27T00:22:58.506Z,12.03
2023-01-27T00:25:27.144Z,12.23
2023-01-27T00:27:55.757Z,12.43
2023-01-27T00:30:24.376Z,13.17
2023-01-27T00:33:10.102Z,10.80
2023-01-27T00:35:38.740Z,11.97
2023-01-27T00:38:07.306Z,11.83
2023-01-27T00:40:35.945Z,10.87
2023-01-27T00:43:04.578Z,10.43
2023-01-27T00:45:52.645Z,9.87
2023-01-27T00:48:21.244Z,10.47
2023-01-27T00:50:49.852Z,10.30
2023-01-27T00:53:18.608Z,11.40
2023-01-27T00:55:48.514Z,8.90
2023-01-27T00:58:17.228Z,10.73
2023-01-27T01:00:46.626Z,10.37
2023-01-27T01:03:15.448Z,9.73
2023-01-27T01:05:44.015Z,9.70
2023-01-27T01:08:12.714Z,9.37
2023-01-27T01:10:41.692Z,8.67
2023-01-27T01:13:12.022Z,8.20
2023-01-27T01:15:41.119Z,8.40
2023-01-27T01:18:11.636Z,8.23
2023-01-27T01:20:44.457Z,8.00
2023-01-27T01:23:14.028Z,8.40
2023-01-27T01:25:43.446Z,7.80
2023-01-27T01:28:12.385Z,7.67
2023-01-27T01:30:41.022Z,7.23
2023-01-27T01:33:09.646Z,7.90
2023-01-27T01:35:40.270Z,6.80
2023-01-27T01:38:08.886Z,8.47
2023-01-27T01:40:45.557Z,7.40
2023-01-27T01:43:17.530Z,8.30
2023-01-27T01:46:00.560Z,7.27
2023-01-27T01:48:57.447Z,8.27
2023-01-27T01:51:35.986Z,7.10
2023-01-27T01:54:23.105Z,6.67
2023-01-27T01:57:06.811Z,7.23
2023-01-27T01:59:50.311Z,7.40
2023-01-27T02:02:24.431Z,7.67
2023-01-27T02:04:57.773Z,7.30
2023-01-27T02:07:41.255Z,5.83
2023-01-27T02:10:09.976Z,5.80
2023-01-27T02:12:38.610Z,5.33
2023-01-27T02:15:08.710Z,6.17
2023-01-27T02:17:37.622Z,6.60
2023-01-27T02:20:45.164Z,7.13
2023-01-27T02:23:37.199Z,6.83
2023-01-27T02:26:05.875Z,6.93
2023-01-27T02:28:34.507Z,7.27
2023-01-27T02:31:03.242Z,6.63
2023-01-27T02:33:31.934Z,6.90
2023-01-27T02:36:15.580Z,6.93
2023-01-27T02:38:54.157Z,7.30
2023-01-27T02:41:47.898Z,7.30
2023-01-27T02:44:16.591Z,6.33
2023-01-27T02:46:48.335Z,6.27
2023-01-27T02:49:17.345Z,6.27
2023-01-27T02:51:45.950Z,6.67
2023-01-27T02:54:14.641Z,7.83
2023-01-27T02:56:43.374Z,6.87
2023-01-27T02:59:11.907Z,7.50
2023-01-27T03:01:40.632Z,6.50
2023-01-27T03:04:12.012Z,6.60
2023-01-27T03:06:40.798Z,6.90
2023-01-27T03:09:09.685Z,7.00
2023-01-27T03:11:55.456Z,6.70
2023-01-27T03:14:37.539Z,7.03
2023-01-27T03:17:23.555Z,7.27
2023-01-27T03:19:53.449Z,7.27
2023-01-27T03:22:22.063Z,6.57
2023-01-27T03:24:50.606Z,7.20
2023-01-27T03:27:19.293Z,6.90
2023-01-27T03:29:57.011Z,7.40
2023-01-27T03:32:31.593Z,7.43
2023-01-27T03:35:01.570Z,6.60
2023-01-27T03:37:47.631Z,6.83
2023-01-27T03:40:34.097Z,6.73
2023-01-27T03:43:20.344Z,8.07
2023-01-27T03:46:10.127Z,7.30
2023-01-27T03:48:38.727Z,7.13
2023-01-27T03:51:09.541Z,7.67
2023-01-27T03:53:38.515Z,8.00
2023-01-27T03:56:07.461Z,7.67
2023-01-27T03:58:38.754Z,8.10
2023-01-27T04:01:14.487Z,8.33
2023-01-27T04:04:01.323Z,8.10
2023-01-27T04:06:50.640Z,7.87
2023-01-27T04:09:31.817Z,9.33
2023-01-27T04:12:02.356Z,8.10
2023-01-27T04:14:38.264Z,8.43
2023-01-27T04:17:14.172Z,9.63
2023-01-27T04:19:42.944Z,8.93
2023-01-27T04:22:13.950Z,8.80
2023-01-27T04:24:42.518Z,9.13
2023-01-27T04:27:16.750Z,9.40
2023-01-27T04:29:45.156Z,10.20
2023-01-27T04:32:14.747Z,9.10
2023-01-27T04:34:43.624Z,8.53
2023-01-27T04:37:12.350Z,9.23
2023-01-27T04:39:41.787Z,8.10
2023-01-27T04:42:10.199Z,7.73
2023-01-27T04:44:38.627Z,9.10
2023-01-27T04:47:07.030Z,9.00
2023-01-27T04:49:35.462Z,9.13
2023-01-27T04:52:03.879Z,10.33
2023-01-27T04:54:32.341Z,8.93
2023-01-27T04:57:03.957Z,9.50
2023-01-27T04:59:32.408Z,9.37
2023-01-27T05:02:00.952Z,9.23
2023-01-27T05:04:29.445Z,8.67
2023-01-27T05:06:57.862Z,9.27
2023-01-27T05:09:26.575Z,9.50
2023-01-27T05:11:55.013Z,8.53
2023-01-27T05:14:24.473Z,9.47
2023-01-27T05:16:53.020Z,8.50
2023-01-27T05:19:21.498Z,8.23
2023-01-27T05:21:49.937Z,8.63
2023-01-27T05:24:18.364Z,8.60
2023-01-27T05:26:46.838Z,8.03
2023-01-27T05:29:15.504Z,7.90
2023-01-27T05:31:43.954Z,8.53
2023-01-27T05:34:12.415Z,8.40
2023-01-27T05:36:40.817Z,7.47
2023-01-27T05:39:11.416Z,7.70
2023-01-27T05:41:40.042Z,7.43
2023-01-27T05:44:13.552Z,7.97
2023-01-27T05:46:42.638Z,8.00
2023-01-27T05:49:11.070Z,8.00
2023-01-27T05:51:41.080Z,8.50
2023-01-27T05:54:10.096Z,8.50
2023-01-27T05:56:39.246Z,7.83
2023-01-27T05:59:08.528Z,7.30
2023-01-27T06:01:37.676Z,8.00
2023-01-27T06:04:06.680Z,8.40
2023-01-27T06:06:35.459Z,7.10
2023-01-27T06:09:03.960Z,7.67
2023-01-27T06:11:32.536Z,7.70
2023-01-27T06:14:01.109Z,7.33
2023-01-27T06:16:29.601Z,6.90
2023-01-27T06:18:58.711Z,6.57
2023-01-27T06:21:27.271Z,7.03
2023-01-27T06:23:56.066Z,7.80
2023-01-27T06:26:24.749Z,8.10
2023-01-27T06:28:53.187Z,7.67
2023-01-27T06:31:23.298Z,6.83
2023-01-27T06:33:52.767Z,6.67
2023-01-27T06:36:23.992Z,7.30
2023-01-27T06:38:56.071Z,7.90
2023-01-27T06:41:24.906Z,7.37
2023-01-27T06:43:58.279Z,6.63
2023-01-27T06:46:26.866Z,7.20
2023-01-27T06:48:55.532Z,7.23
2023-01-27T06:51:24.080Z,7.03
2023-01-27T06:53:52.489Z,7.30
2023-01-27T06:56:21.048Z,6.00
2023-01-27T06:58:49.645Z,6.83
2023-01-27T07:01:18.408Z,6.53
2023-01-27T07:03:46.853Z,7.40
2023-01-27T07:06:16.260Z,6.87
2023-01-27T07:08:46.997Z,7.03
2023-01-27T07:11:15.703Z,7.50
2023-01-27T07:13:44.385Z,8.00
2023-01-27T07:16:12.832Z,8.43
2023-01-27T07:18:41.258Z,6.93
2023-01-27T07:21:09.620Z,8.03
2023-01-27T07:23:37.996Z,7.87
2023-01-27T07:26:19.218Z,7.73
2023-01-27T07:28:51.945Z,9.17
2023-01-27T07:31:20.499Z,8.23
2023-01-27T07:33:49.149Z,8.97
2023-01-27T07:36:17.605Z,7.90
2023-01-27T07:38:45.991Z,7.70
2023-01-27T07:41:14.654Z,8.67
2023-01-27T07:43:43.163Z,7.67
2023-01-27T07:46:11.590Z,8.10
2023-01-27T07:48:40.063Z,7.87
2023-01-27T07:51:12.334Z,8.40
2023-01-27T07:53:41.214Z,8.60
2023-01-27T07:56:11.993Z,8.67
2023-01-27T07:58:41.036Z,8.63
2023-01-27T08:01:14.254Z,7.73
2023-01-27T08:03:42.692Z,8.90
2023-01-27T08:06:12.903Z,8.50
2023-01-27T08:08:41.721Z,8.20
2023-01-27T08:11:14.025Z,8.00
2023-01-27T08:13:42.541Z,9.20
2023-01-27T08:16:15.320Z,8.27
2023-01-27T08:18:44.173Z,8.40
2023-01-27T08:21:14.253Z,8.77
2023-01-27T08:23:42.776Z,8.50
2023-01-27T08:26:11.235Z,7.97
2023-01-27T08:28:41.239Z,8.47
2023-01-27T08:31:16.220Z,8.10
2023-01-27T08:33:47.518Z,7.87
2023-01-27T08:36:18.430Z,8.27
2023-01-27T08:38:49.259Z,8.10
2023-01-27T08:41:26.632Z,8.40
2023-01-27T08:43:56.396Z,7.63
2023-01-27T08:46:25.143Z,8.67
2023-01-27T08:48:53.627Z,8.27
2023-01-27T08:51:22.052Z,8.00
2023-01-27T08:53:50.492Z,7.70
2023-01-27T08:56:18.940Z,7.50
2023-01-27T08:58:48.582Z,8.50
2023-01-27T09:01:17.735Z,7.37
2023-01-27T09:03:46.615Z,6.37
2023-01-27T09:06:15.486Z,6.53
2023-01-27T09:08:44.798Z,8.13
2023-01-27T09:11:16.794Z,8.00
2023-01-27T09:13:45.651Z,7.60
2023-01-27T09:16:14.073Z,7.77
2023-01-27T09:18:42.480Z,8.97
2023-01-27T09:21:11.624Z,9.47
2023-01-27T09:23:40.016Z,7.10
2023-01-27T09:26:08.399Z,6.87
2023-01-27T09:28:36.847Z,7.57
2023-01-27T09:31:05.518Z,6.60
2023-01-27T09:33:34.232Z,8.57
2023-01-27T09:36:22.655Z,7.33
2023-01-27T09:39:01.639Z,7.00
2023-01-27T09:42:02.147Z,7.73
2023-01-27T09:44:50.265Z,8.07
2023-01-27T09:48:06.646Z,7.70
2023-01-27T09:50:46.384Z,7.23
2023-01-27T09:53:36.366Z,7.60
2023-01-27T09:56:24.419Z,8.07
2023-01-27T09:59:32.617Z,8.00
2023-01-27T10:02:53.516Z,7.57
2023-01-27T10:05:30.776Z,7.20
2023-01-27T10:08:28.722Z,7.97
2023-01-27T10:11:50.175Z,6.80
2023-01-27T10:15:00.562Z,7.60
2023-01-27T10:17:45.099Z,8.20
2023-01-27T10:20:36.038Z,7.00
2023-01-27T10:23:54.725Z,7.53
2023-01-27T10:26:53.076Z,7.80
2023-01-27T10:29:36.079Z,8.07
2023-01-27T10:32:29.080Z,7.53
2023-01-27T10:35:00.283Z,7.17
2023-01-27T10:38:24.532Z,7.60
2023-01-27T10:41:05.350Z,7.43
2023-01-27T10:43:44.180Z,8.63
2023-01-27T10:46:12.715Z,8.73
2023-01-27T10:48:48.645Z,8.43
2023-01-27T10:51:34.614Z,8.73
2023-01-27T10:54:15.577Z,9.03
2023-01-27T10:57:07.529Z,9.00
2023-01-27T11:00:46.511Z,8.77
2023-01-27T11:03:00.435Z,9.63
2023-01-27T11:05:43.836Z,9.97
2023-01-27T11:08:20.518Z,9.90
2023-01-27T11:11:12.795Z,9.80
2023-01-27T11:13:41.973Z,9.07
2023-01-27T11:16:21.540Z,9.23
2023-01-27T11:19:02.115Z,9.47
2023-01-27T11:21:32.812Z,8.80
2023-01-27T11:24:23.144Z,9.27
2023-01-27T11:27:04.020Z,9.63
2023-01-27T11:29:50.319Z,8.63
2023-01-27T11:32:49.816Z,9.23
2023-01-27T11:35:18.609Z,8.97
2023-01-27T11:37:54.826Z,8.50
2023-01-27T11:40:35.511Z,8.93
2023-01-27T11:43:05.082Z,9.07
2023-01-27T11:45:37.523Z,8.03
2023-01-27T11:48:14.287Z,8.07
2023-01-27T11:50:44.624Z,6.60
2023-01-27T11:53:36.808Z,7.33
2023-01-27T11:56:11.443Z,7.20
2023-01-27T11:59:02.793Z,7.87
2023-01-27T12:01:58.263Z,7.03
2023-01-27T12:04:49.389Z,7.90
2023-01-27T12:07:58.061Z,7.03
2023-01-27T12:10:38.877Z,6.60
2023-01-27T12:13:18.959Z,7.60
2023-01-27T12:16:03.661Z,6.90
2023-01-27T12:18:36.952Z,6.40
2023-01-27T12:21:10.493Z,6.00
2023-01-27T12:23:49.140Z,5.67
2023-01-27T12:26:17.923Z,5.73
2023-01-27T12:28:56.363Z,5.50
2023-01-27T12:31:30.233Z,5.83
2023-01-27T12:34:05.843Z,6.43
2023-01-27T12:36:44.031Z,6.10
2023-01-27T12:39:57.156Z,5.37
2023-01-27T12:42:44.415Z,6.20
2023-01-27T12:45:31.415Z,5.70
2023-01-27T12:48:02.754Z,4.90
2023-01-27T12:50:35.095Z,4.57
2023-01-27T12:53:14.001Z,4.17
2023-01-27T12:56:01.176Z,3.87
2023-01-27T12:58:37.838Z,3.00
2023-01-27T13:01:36.450Z,3.53
2023-01-27T13:04:06.052Z,4.33
2023-01-27T13:06:34.678Z,4.70
2023-01-27T13:09:04.591Z,4.27
2023-01-27T13:11:38.649Z,6.53
2023-01-27T13:14:14.393Z,6.60
2023-01-27T13:16:42.987Z,3.77
2023-01-27T13:19:19.566Z,3.93
2023-01-27T13:21:55.266Z,4.33
2023-01-27T13:24:40.696Z,7.37
2023-01-27T13:27:18.019Z,3.97
2023-01-27T13:29:59.113Z,3.60
2023-01-27T13:32:32.385Z,3.40
2023-01-27T13:35:27.580Z,3.10
2023-01-27T13:38:03.602Z,3.20
2023-01-27T13:40:46.704Z,3.50
2023-01-27T13:43:41.654Z,3.20
2023-01-27T13:46:35.355Z,3.10
2023-01-27T13:49:39.260Z,3.10
2023-01-27T13:52:08.266Z,3.17
2023-01-27T13:54:36.809Z,3.17
2023-01-27T13:57:36.582Z,3.30
2023-01-27T14:00:32.024Z,3.10
2023-01-27T14:03:19.193Z,3.67
2023-01-27T14:06:30.294Z,3.47
2023-01-27T14:09:43.161Z,3.13
2023-01-27T14:12:55.757Z,3.40
2023-01-27T14:15:50.529Z,3.00
2023-01-27T14:18:46.167Z,3.30
2023-01-27T14:21:45.435Z,3.23
2023-01-27T14:24:47.569Z,3.30
2023-01-27T14:27:19.243Z,2.97
2023-01-27T14:29:50.902Z,3.43
2023-01-27T14:32:33.631Z,4.30
2023-01-27T14:35:23.241Z,3.83
2023-01-27T14:38:12.079Z,4.73
2023-01-27T14:41:10.411Z,6.70
2023-01-27T14:44:07.372Z,6.20
2023-01-27T14:47:06.134Z,3.83
2023-01-27T14:49:54.422Z,3.20
2023-01-27T14:52:44.313Z,8.03
2023-01-27T14:55:40.759Z,6.67
2023-01-27T14:58:58.202Z,3.70
2023-01-27T15:01:53.269Z,3.93
2023-01-27T15:04:30.819Z,3.37
2023-01-27T15:07:17.010Z,4.23
2023-01-27T15:10:27.313Z,4.90
2023-01-27T15:13:19.538Z,3.50
2023-01-27T15:16:46.827Z,3.40
2023-01-27T15:19:37.470Z,4.17
2023-01-27T15:22:11.853Z,3.90
2023-01-27T15:25:27.753Z,4.03
2023-01-27T15:27:56.561Z,3.60
2023-01-27T15:30:34.584Z,3.97
2023-01-27T15:33:03.206Z,3.93
2023-01-27T15:35:34.703Z,3.97
2023-01-27T15:38:33.873Z,4.40
2023-01-27T15:41:08.904Z,3.87
2023-01-27T15:43:44.762Z,3.57
2023-01-27T15:46:45.084Z,3.93
2023-01-27T15:49:22.710Z,4.40
2023-01-27T15:51:55.608Z,3.60
2023-01-27T15:54:33.266Z,3.57
2023-01-27T15:57:06.417Z,4.23
2023-01-27T15:59:58.790Z,3.93
2023-01-27T16:02:33.640Z,4.47
2023-01-27T16:05:45.817Z,5.80
2023-01-27T16:08:17.433Z,4.13
2023-01-27T16:10:46.493Z,4.20
2023-01-27T16:13:28.823Z,3.60
2023-01-27T16:16:19.138Z,4.53
2023-01-27T16:18:54.135Z,4.07
2023-01-27T16:21:58.553Z,3.70
2023-01-27T16:24:52.968Z,4.70
2023-01-27T16:27:40.411Z,4.17
2023-01-27T16:30:24.189Z,5.10
2023-01-27T16:33:16.171Z,4.77
2023-01-27T16:35:54.550Z,4.60
2023-01-27T16:38:34.538Z,4.87
2023-01-27T16:41:09.897Z,5.13
2023-01-27T16:43:52.647Z,5.03
2023-01-27T16:46:37.787Z,4.63
2023-01-27T16:49:40.704Z,4.80
2023-01-27T16:52:40.738Z,5.37
2023-01-27T16:55:22.980Z,5.57
2023-01-27T16:57:52.621Z,5.67
2023-01-27T17:00:27.204Z,5.13
2023-01-27T17:02:59.280Z,4.40
2023-01-27T17:05:28.580Z,5.60
2023-01-27T17:08:14.897Z,5.40
2023-01-27T17:10:57.558Z,4.43
2023-01-27T17:13:45.716Z,6.00
2023-01-27T17:16:34.473Z,5.20
2023-01-27T17:19:25.875Z,3.60
2023-01-27T17:22:01.589Z,4.03
2023-01-27T17:24:49.852Z,3.70
2023-01-27T17:27:27.884Z,3.77
2023-01-27T17:30:24.316Z,3.70
2023-01-27T17:32:59.115Z,4.60
2023-01-27T17:35:33.091Z,4.30
2023-01-27T17:38:25.570Z,4.33
2023-01-27T17:40:56.394Z,5.50
2023-01-27T17:43:36.747Z,5.03
2023-01-27T17:46:20.579Z,4.83
2023-01-27T17:49:05.042Z,4.13
2023-01-27T17:51:45.484Z,4.53
2023-01-27T17:54:41.504Z,5.23
2023-01-27T17:57:32.435Z,4.43
2023-01-27T18:00:11.480Z,4.60
2023-01-27T18:02:57.213Z,4.83
2023-01-27T18:05:31.698Z,5.43
2023-01-27T18:08:00.729Z,5.57
2023-01-27T18:10:35.033Z,5.30
2023-01-27T18:13:21.689Z,4.80
2023-01-27T18:16:13.297Z,5.50
2023-01-27T18:18:41.988Z,5.00
2023-01-27T18:21:10.667Z,6.10
2023-01-27T18:23:45.554Z,5.23
2023-01-27T18:26:24.842Z,6.20
2023-01-27T18:29:03.835Z,4.50
2023-01-27T18:31:57.521Z,6.37
2023-01-27T18:34:30.197Z,6.23
2023-01-27T18:37:07.285Z,5.40
2023-01-27T18:39:43.572Z,5.20
2023-01-27T18:42:21.516Z,5.83
2023-01-27T18:44:54.715Z,8.57
2023-01-27T18:47:28.755Z,6.50
2023-01-27T18:49:57.402Z,8.00
2023-01-27T18:52:26.224Z,5.60
2023-01-27T18:55:12.699Z,6.10
2023-01-27T18:57:41.458Z,7.57
2023-01-27T19:00:13.546Z,6.90
2023-01-27T19:02:46.670Z,5.70
2023-01-27T19:05:23.150Z,7.13
2023-01-27T19:07:53.140Z,6.80
2023-01-27T19:10:30.018Z,6.87
2023-01-27T19:13:01.780Z,6.93
2023-01-27T19:15:35.997Z,6.37
2023-01-27T19:18:23.053Z,8.07
2023-01-27T19:20:53.317Z,8.73
2023-01-27T19:23:23.311Z,8.40
2023-01-27T19:25:56.266Z,7.80
2023-01-27T19:28:38.152Z,8.10
2023-01-27T19:31:08.112Z,7.87
2023-01-27T19:33:38.763Z,8.20
2023-01-27T19:36:13.006Z,7.53
2023-01-27T19:38:41.811Z,6.83
2023-01-27T19:41:10.948Z,7.73
2023-01-27T19:43:40.470Z,7.73
2023-01-27T19:46:17.849Z,9.83
2023-01-27T19:48:46.572Z,8.07
2023-01-27T19:51:17.440Z,7.87
2023-01-27T19:53:46.579Z,7.53
2023-01-27T19:56:21.825Z,7.67
2023-01-27T19:58:54.081Z,8.30
2023-01-27T20:01:25.680Z,8.00
2023-01-27T20:03:55.318Z,8.10
2023-01-27T20:06:29.881Z,8.97
2023-01-27T20:09:00.420Z,8.67
2023-01-27T20:11:41.284Z,7.60
2023-01-27T20:14:20.485Z,9.30
2023-01-27T20:16:49.923Z,6.90
2023-01-27T20:19:18.834Z,6.73
2023-01-27T20:21:48.374Z,7.67
2023-01-27T20:24:19.717Z,7.57
2023-01-27T20:26:49.051Z,8.23
2023-01-27T20:29:17.750Z,7.03
2023-01-27T20:31:46.773Z,7.27
2023-01-27T20:34:15.619Z,7.10
2023-01-27T20:36:44.231Z,8.20
2023-01-27T20:39:13.109Z,6.53
2023-01-27T20:41:41.751Z,7.00
2023-01-27T20:44:13.474Z,7.30
2023-01-27T20:46:42.269Z,7.30
2023-01-27T20:49:11.340Z,6.83
2023-01-27T20:51:40.162Z,7.03
2023-01-27T20:54:08.896Z,6.87
2023-01-27T20:56:37.714Z,6.50
2023-01-27T20:59:06.485Z,7.40
2023-01-27T21:01:35.737Z,6.97
2023-01-27T21:04:04.454Z,6.80
2023-01-27T21:06:33.650Z,7.10
2023-01-27T21:09:02.717Z,7.13
2023-01-27T21:11:31.958Z,6.47
2023-01-27T21:14:01.377Z,7.77
2023-01-27T21:16:30.056Z,7.40
2023-01-27T21:18:58.796Z,6.83
2023-01-27T21:21:30.578Z,6.93
2023-01-27T21:24:01.273Z,6.50
2023-01-27T21:26:29.982Z,6.57
2023-01-27T21:28:59.099Z,6.10
2023-01-27T21:31:30.595Z,6.53
2023-01-27T21:34:01.193Z,6.87
2023-01-27T21:36:29.966Z,5.93
2023-01-27T21:38:58.891Z,6.13
2023-01-27T21:41:45.410Z,6.57
2023-01-27T21:44:41.738Z,6.00
2023-01-27T21:47:16.984Z,5.53
2023-01-27T21:50:03.135Z,5.30
2023-01-27T21:52:49.893Z,5.63
2023-01-27T21:55:30.651Z,5.47
2023-01-27T21:57:59.388Z,5.97
2023-01-27T22:00:29.801Z,5.43
2023-01-27T22:03:04.548Z,5.93
2023-01-27T22:05:35.098Z,5.37
2023-01-27T22:08:06.471Z,5.70
2023-01-27T22:10:35.368Z,5.77
2023-01-27T22:13:05.715Z,5.70
2023-01-27T22:15:34.586Z,5.87
2023-01-27T22:18:03.167Z,5.33
2023-01-27T22:20:31.858Z,5.93
2023-01-27T22:23:00.581Z,6.27
2023-01-27T22:25:29.196Z,5.43
2023-01-27T22:27:57.850Z,5.60
2023-01-27T22:30:26.575Z,5.20
2023-01-27T22:32:55.213Z,5.73
2023-01-27T22:35:23.922Z,5.63
2023-01-27T22:37:53.179Z,5.20
2023-01-27T22:40:21.854Z,5.73
2023-01-27T22:42:51.077Z,5.27
2023-01-27T22:45:19.801Z,4.97
2023-01-27T22:47:49.605Z,4.77
2023-01-27T22:50:18.412Z,4.80
2023-01-27T22:52:47.954Z,4.27
2023-01-27T22:55:16.900Z,4.77
2023-01-27T22:57:47.884Z,4.67
2023-01-27T23:00:16.925Z,3.97
2023-01-27T23:02:45.548Z,4.30
2023-01-27T23:05:14.435Z,4.13
2023-01-27T23:07:43.325Z,4.00
2023-01-27T23:10:12.249Z,3.87
2023-01-27T23:12:40.976Z,3.63
2023-01-27T23:15:10.021Z,3.80
2023-01-27T23:17:38.782Z,4.37
2023-01-27T23:20:08.081Z,3.97
2023-01-27T23:22:36.749Z,4.07
2023-01-27T23:25:05.660Z,4.13
2023-01-27T23:27:35.265Z,4.50
2023-01-27T23:30:03.994Z,4.50
2023-01-27T23:32:32.691Z,3.60
2023-01-27T23:35:01.263Z,4.03
2023-01-27T23:37:29.914Z,3.93
2023-01-27T23:39:58.506Z,3.70
2023-01-27T23:42:27.041Z,3.40
2023-01-27T23:44:55.619Z,3.73
2023-01-27T23:47:24.270Z,3.50
2023-01-27T23:49:52.888Z,3.10
2023-01-27T23:52:21.458Z,3.77
2023-01-27T23:54:50.166Z,3.27
2023-01-27T23:57:19.024Z,3.20
2023-01-27T23:59:47.729Z,3.23
